My Meet Scores
Alexis Schmidt, United Gymnastics Academy - MyMeetScores.com
Top100 | Top Teams | Upcoming Meets | Completed Meets | Latest | Add Scores | Help| Support | Bookmark and Share

Alexis Schmidt, United Gymnastics Academy
Personal Bests
LevelVault BarsBeamFloorAA
68.4009.450 8.6008.95035.400
89.5509.450 9.4009.50037.900
99.2259.525 9.5509.22536.675
109.7509.600 9.4009.45037.625
OP9.3759.500 9.1507.90035.925
10/O9.2508.725 8.8009.17535.950
Scores on America's Top 100as of 02.22.2019
Year Level Vault Bars Beam Floor AA
2010 109.750
Meet Scores
Date Meet Team Session Level Division Vault Bars Beam Floor AA
2011-04-17 2011 Region 5 Level 9 - 10 Championships United Gymnastics Academy 10 Senior D 9.350 8 9.375 1 9.125 4 8.450 30 36.300 10
2011-03-25 2011 Illinois Level 6-9-10 State Meet United Gymnastics Academy 8 10 Sr.C 9.550 3 9.600 3 8.575 9 9.200 8 36.925 3
2011-03-11 Arena Classic United Gymnastics Academy 4A 10 Sr.B 9.600 3 9.575 1 9.150 7 9.300 9 37.625 2
2011-03-04 Tim Rand Invitational United Gymnastics Academy Multiple Sessions Combined OP L10 S8grp3 9.375 5 9.500 1 9.150 4 7.900 10 35.925 5
2011-02-19 12th Annual GymQuarters Invitational United Gymnastics Academy 5A 10 Senior 0.000 15T 8.650 5 9.250 3 0.000 13T 17.900 14
2011-01-28 UGA Classic United Gymnastics Academy 5 10 Lvl 10: 16 & up 0.000 19T 9.400 6 0.000 20T 0.000 19T 9.400 21
2011-01-21 Bravo Classic United Gymnastics Academy 6A 10 17+ 0.000 13 0.000 11 9.225 4 8.425 12 17.650 12
2011-01-07 Twistars Invitational / Flip for the Red White & Blue United Gymnastics Academy 10B 10 17 & up 9.250 7 8.925 8 8.950 9 9.275 7 36.400 5
2010-05-07 2010 Women's J.O. Championships United Gymnastics Academy Multiple Sessions Combined 10 Senior B 9.450 22T 9.225 23T 9.250 14T 9.375 26T 37.300 12
2010-04-08 2010 Region 5 Level 9, 10 Championships United Gymnastics Academy 2B 10 Senior B 9.550 3 8.750 14 8.825 11 9.300 4 36.425 8
2010-03-19 2010 Illinois Level 8, 9, 10 State Championships United Gymnastics Academy 8 10 Sr.B 9.550 7 9.475 3 8.875 12 9.450 4 37.350 5
2010-03-05 Arena Classic United Gymnastics Academy 10 Sr.A 9.750 4 9.250 3 8.150 12 9.300 7 36.450 7
2010-02-12 11th Annual GymQuarters Invitational United Gymnastics Academy 7 10 Junior 9.525 2 9.375 1* 8.525 11 9.375 2 36.800 4T
2010-02-05 St. Valentines Classic United Gymnastics Academy 3A 10 16_and_up 9.675 1 9.450 1 8.825 3 9.425 1 37.375 1
2010-01-22 Sand Dollar/ Whitlow Invitational United Gymnastics Academy 5 10 Sr A 9.375 3 8.850 6 7.800 13 8.950 5 34.975 4
2010-01-08 Twistars 2010 Rock the House Invitational United Gymnastics Academy 10B 10/O 16 9.250 3 8.725 7 8.800 7 9.175 5 35.950 6
2009-04-17 2009 Region 5 Level 9 and 10 Championships United Gymnastics Academy 2 10 Jr.D 9.400 6 9.075 9 8.900 10 9.175 15 36.550 8
2009-03-13 Arena Classic United Gymnastics Academy 6 10 Lvl10:JuniorB 9.450 7 8.950 14 8.900 13 9.325 8 36.625 13
2009-02-27 2009 Gasparilla Classic United Gymnastics Academy Multiple Sessions Combined 10 B5 10 grp2 8.900 6 9.450 2 9.150 4 8.875 1 36.375 2
2009-02-13 GymQuarters Invitational United Gymnastics Academy 6 10 Jr B 9.150 7T 9.200 5 9.350 5 0.000 12T 27.700 11
2009-01-23 2009 Bravo Classic United Gymnastics Academy 7A 10 Jr 0.000 21 8.625 15 9.400 5 0.000 20 18.025 22
2009-01-09 Twistars Invitational 2009 Midnight Madness United Gymnastics Academy 10a 10 15-16 0.000 10 0.000 10 0.000 10 0.000 10 0.000 10
2008-05-08 Level 9 Eastern Championships 2008 United Gymnastics Academy 5 9 Senior A 8.600 49 9.525 1 9.350 5 9.200 12 36.675 9
2008-02-15 2008 Arizona Sunrays Hardrock Invitational United Gymnastics Academy B5 9 Sr 8.750 15T 9.200 1T 9.300 1 9.225 2 36.475 2
2008-02-08 IGI Chicago Style Gymnastics Meet 2008 United Gymnastics Academy 533 9 14 - 15 Yr 0.000 18 0.000 18 0.000 18 0.000 18 0.000 18
2008-01-25 2008 Bravo Classic United Gymnastics Academy 5A 9 SrA 9.225 1 9.225 1 9.550 1 8.525 12 36.525 1
2007-02-10 For Love or Money 2007 Gym Kinetics Gymnastics MoneyGym 8 14 9.550 1 9.450 2 9.400 1 9.500 1 37.900 1
2005-01-07 Bravo Classic 05 Gym Kinetics Sports Complex 1B 6 12 year 8.400 12 9.450 1 8.600 3 8.950 1 35.400 1

www.lazysuits.com